Asterion — FICK — position and weather

sailwx.info

Track history (hours):
 
Tides and Currents Weather Stations Pressure Air Temp Water Temp Dewpoint Dewpoint Depression Visibility Wind Speed Wind Dir Waves Ship Positions

Asterion

Last reported at 2015-Sep-03 22:33 UTC. Time now 2015-Sep-05 05:48 UTC.
Position N 37°39' E 008°10'.

Length 184 m; draft 11.5 m.

Type: Tanker. MMSI: 226000000.

Date/timePositionNaut miles runAvg speedWind from/ knotsBaromVisibWave heightAir tempDewpointWater temp
2015-Sep-03 22:33N 37°39' E 008°10'1210.8
2015-Sep-03 21:27N 37°41' E 008°25'2310.4
2015-Sep-03 19:16N 37°44' E 008°53'910.7
2015-Sep-03 18:23N 37°44' E 009°05'911.2
2015-Sep-03 17:33N 37°43' E 009°17'1111.4
2015-Sep-03 16:32N 37°41' E 009°32'1010.5
2015-Sep-03 15:33N 37°40' E 009°45'1110.5
2015-Sep-03 14:33N 37°39' E 009°58'1010.5
2015-Sep-03 13:33N 37°39' E 010°11'1010.4
2015-Sep-03 12:33N 37°37' E 010°24'1010.3
2015-Sep-03 11:33N 37°35' E 010°37'1010.4
2015-Sep-03 10:33N 37°32' E 010°49'1110.4
2015-Sep-03 09:29N 37°29' E 011°03'5411.0
2015-Sep-03 04:33N 37°06' E 012°04'2110.5
2015-Sep-03 02:33N 36°57' E 012°28'1110.7
2015-Sep-03 01:33N 36°53' E 012°40'10 9.9
2015-Sep-03 00:30N 36°49' E 012°52'9 9.9
2015-Sep-02 23:33N 36°45' E 013°03'10 9.7
2015-Sep-02 22:33N 36°41' E 013°14'10 9.7
2015-Sep-02 21:33N 36°37' E 013°25'10 9.7
2015-Sep-02 20:33N 36°33' E 013°36'10 9.9
2015-Sep-02 19:33N 36°29' E 013°48'1010.1
2015-Sep-02 18:33N 36°25' E 013°59'1010.1
2015-Sep-02 17:33N 36°21' E 014°11'1110.6
2015-Sep-02 16:33N 36°17' E 014°23'1010.5
2015-Sep-02 15:33N 36°11' E 014°33'1010.3
2015-Sep-02 14:33N 36°05' E 014°43'7 7.3
2015-Sep-02 13:33N 35°58' E 014°48'7 6.7
2015-Sep-02 12:32N 35°52' E 014°51'0 0.1
2015-Sep-02 11:32N 35°52' E 014°51'0 0.0
2015-Sep-02 10:32N 35°52' E 014°51'0 0.0
2015-Sep-02 09:32N 35°52' E 014°51'0 0.0
2015-Sep-02 02:14N 35°52' E 014°51'0 0.0
2015-Sep-01 22:23N 35°52' E 014°51'0 0.0
2015-Sep-01 21:32N 35°52' E 014°51'0 0.0
2015-Sep-01 19:29N 35°52' E 014°51'0 0.0
2015-Sep-01 15:32N 35°52' E 014°50'962115.6
2015-Sep-01 07:13N 48°55' E 002°13'962323.3
2015-Sep-01 04:14N 35°52' E 014°50'0 0.0
2015-Sep-01 03:32N 35°52' E 014°50'0 0.1
2015-Sep-01 02:32N 35°52' E 014°50'0 0.0
2015-Aug-31 22:05N 35°52' E 014°51'0 0.0
2015-Aug-31 19:32N 35°52' E 014°51'0 0.0
2015-Aug-31 18:26N 35°52' E 014°51'96080.8
2015-Aug-31 06:34N 48°53' E 002°15'960224.8
2015-Aug-31 02:17N 35°52' E 014°50'0 0.0
2015-Aug-31 01:32N 35°52' E 014°50'0 0.0
2015-Aug-31 00:32N 35°52' E 014°51'0 0.0
2015-Aug-30 23:20N 35°52' E 014°51'0 0.0
2015-Aug-30 21:05N 35°52' E 014°51'0 0.1
2015-Aug-30 20:32N 35°52' E 014°51'0 0.0
2015-Aug-30 19:26N 35°52' E 014°51'0 0.0
2015-Aug-30 12:32N 35°52' E 014°50'0 0.0
2015-Aug-30 11:25N 35°52' E 014°50'0 0.0
2015-Aug-30 09:31N 35°52' E 014°50'0 0.0
2015-Aug-30 08:22N 35°52' E 014°50'0 0.0
2015-Aug-30 06:22N 35°52' E 014°50'0 0.0
2015-Aug-30 04:16N 35°52' E 014°50'2 3.3
2015-Aug-30 03:32N 35°52' E 014°47'0 0.0
2015-Aug-30 02:32N 35°52' E 014°47'0 0.0
2015-Aug-30 01:23N 35°52' E 014°48'0 0.0
2015-Aug-30 00:29N 35°52' E 014°48'0 0.0
2015-Aug-29 23:29N 35°52' E 014°48'0 0.0
2015-Aug-29 22:32N 35°52' E 014°48'0 0.0
2015-Aug-29 21:23N 35°52' E 014°48'7 6.8
2015-Aug-29 20:18N 35°54' E 014°56'1012.8
2015-Aug-29 19:31N 35°55' E 015°09'1212.9
2015-Aug-29 18:33N 35°56' E 015°24'1413.0
2015-Aug-29 17:28N 35°57' E 015°41'1212.8
2015-Aug-29 16:33N 35°58' E 015°56'32412.9
2015-Aug-28 15:29N 36°22' E 022°36'1171297.4
2015-Aug-28 11:33N 48°53' E 002°15'1 0.1
2015-Aug-28 06:32N 48°53' E 002°15'  
Track history (hours):
 
Tides and Currents Weather Stations Pressure Air Temp Water Temp Dewpoint Dewpoint Depression Visibility Wind Speed Wind Dir Waves Ship Positions

Asterion

Last reported at 2015-Sep-03 22:33 UTC. Time now 2015-Sep-05 05:48 UTC.
Position N 37°39' E 008°10'.

Length 184 m; draft 11.5 m.

Type: Tanker. MMSI: 226000000.

Date/timePositionNaut miles runAvg speedWind from/ knotsBaromVisibWave heightAir tempDewpointWater temp
2015-Sep-03 22:33N 37°39' E 008°10'1210.8
2015-Sep-03 21:27N 37°41' E 008°25'2310.4
2015-Sep-03 19:16N 37°44' E 008°53'910.7
2015-Sep-03 18:23N 37°44' E 009°05'911.2
2015-Sep-03 17:33N 37°43' E 009°17'1111.4
2015-Sep-03 16:32N 37°41' E 009°32'1010.5
2015-Sep-03 15:33N 37°40' E 009°45'1110.5
2015-Sep-03 14:33N 37°39' E 009°58'1010.5
2015-Sep-03 13:33N 37°39' E 010°11'1010.4
2015-Sep-03 12:33N 37°37' E 010°24'1010.3
2015-Sep-03 11:33N 37°35' E 010°37'1010.4
2015-Sep-03 10:33N 37°32' E 010°49'1110.4
2015-Sep-03 09:29N 37°29' E 011°03'5411.0
2015-Sep-03 04:33N 37°06' E 012°04'2110.5
2015-Sep-03 02:33N 36°57' E 012°28'1110.7
2015-Sep-03 01:33N 36°53' E 012°40'10 9.9
2015-Sep-03 00:30N 36°49' E 012°52'9 9.9
2015-Sep-02 23:33N 36°45' E 013°03'10 9.7
2015-Sep-02 22:33N 36°41' E 013°14'10 9.7
2015-Sep-02 21:33N 36°37' E 013°25'10 9.7
2015-Sep-02 20:33N 36°33' E 013°36'10 9.9
2015-Sep-02 19:33N 36°29' E 013°48'1010.1
2015-Sep-02 18:33N 36°25' E 013°59'1010.1
2015-Sep-02 17:33N 36°21' E 014°11'1110.6
2015-Sep-02 16:33N 36°17' E 014°23'1010.5
2015-Sep-02 15:33N 36°11' E 014°33'1010.3
2015-Sep-02 14:33N 36°05' E 014°43'7 7.3
2015-Sep-02 13:33N 35°58' E 014°48'7 6.7
2015-Sep-02 12:32N 35°52' E 014°51'0 0.1
2015-Sep-02 11:32N 35°52' E 014°51'0 0.0
2015-Sep-02 10:32N 35°52' E 014°51'0 0.0
2015-Sep-02 09:32N 35°52' E 014°51'0 0.0
2015-Sep-02 02:14N 35°52' E 014°51'0 0.0
2015-Sep-01 22:23N 35°52' E 014°51'0 0.0
2015-Sep-01 21:32N 35°52' E 014°51'0 0.0
2015-Sep-01 19:29N 35°52' E 014°51'0 0.0
2015-Sep-01 15:32N 35°52' E 014°50'962115.6
2015-Sep-01 07:13N 48°55' E 002°13'962323.3
2015-Sep-01 04:14N 35°52' E 014°50'0 0.0
2015-Sep-01 03:32N 35°52' E 014°50'0 0.1
2015-Sep-01 02:32N 35°52' E 014°50'0 0.0
2015-Aug-31 22:05N 35°52' E 014°51'0 0.0
2015-Aug-31 19:32N 35°52' E 014°51'0 0.0
2015-Aug-31 18:26N 35°52' E 014°51'96080.8
2015-Aug-31 06:34N 48°53' E 002°15'960224.8
2015-Aug-31 02:17N 35°52' E 014°50'0 0.0
2015-Aug-31 01:32N 35°52' E 014°50'0 0.0
2015-Aug-31 00:32N 35°52' E 014°51'0 0.0
2015-Aug-30 23:20N 35°52' E 014°51'0 0.0
2015-Aug-30 21:05N 35°52' E 014°51'0 0.1
2015-Aug-30 20:32N 35°52' E 014°51'0 0.0
2015-Aug-30 19:26N 35°52' E 014°51'0 0.0
2015-Aug-30 12:32N 35°52' E 014°50'0 0.0
2015-Aug-30 11:25N 35°52' E 014°50'0 0.0
2015-Aug-30 09:31N 35°52' E 014°50'0 0.0
2015-Aug-30 08:22N 35°52' E 014°50'0 0.0
2015-Aug-30 06:22N 35°52' E 014°50'0 0.0
2015-Aug-30 04:16N 35°52' E 014°50'2 3.3
2015-Aug-30 03:32N 35°52' E 014°47'0 0.0
2015-Aug-30 02:32N 35°52' E 014°47'0 0.0
2015-Aug-30 01:23N 35°52' E 014°48'0 0.0
2015-Aug-30 00:29N 35°52' E 014°48'0 0.0
2015-Aug-29 23:29N 35°52' E 014°48'0 0.0
2015-Aug-29 22:32N 35°52' E 014°48'0 0.0
2015-Aug-29 21:23N 35°52' E 014°48'7 6.8
2015-Aug-29 20:18N 35°54' E 014°56'1012.8
2015-Aug-29 19:31N 35°55' E 015°09'1212.9
2015-Aug-29 18:33N 35°56' E 015°24'1413.0
2015-Aug-29 17:28N 35°57' E 015°41'1212.8
2015-Aug-29 16:33N 35°58' E 015°56'32412.9
2015-Aug-28 15:29N 36°22' E 022°36'1171297.4
2015-Aug-28 11:33N 48°53' E 002°15'1 0.1
2015-Aug-28 06:32N 48°53' E 002°15'  

Dump ship's entire track history